sensor_id;sensor_type;location;lat;lon;timestamp;P1;durP1;ratioP1;P2;durP2;ratioP2
6133;SDS011;3098;42.678;23.364;2023-02-28T00:00:21;12.23;;;5.87;;
6133;SDS011;3098;42.678;23.364;2023-02-28T00:02:48;20.53;;;6.57;;
6133;SDS011;3098;42.678;23.364;2023-02-28T00:05:18;14.57;;;4.93;;
6133;SDS011;3098;42.678;23.364;2023-02-28T00:07:46;16.63;;;6.33;;
6133;SDS011;3098;42.678;23.364;2023-02-28T00:10:17;13.40;;;4.67;;
6133;SDS011;3098;42.678;23.364;2023-02-28T00:12:46;12.43;;;5.50;;
6133;SDS011;3098;42.678;23.364;2023-02-28T00:15:13;10.50;;;5.13;;
6133;SDS011;3098;42.678;23.364;2023-02-28T00:17:41;13.00;;;5.60;;
6133;SDS011;3098;42.678;23.364;2023-02-28T00:20:09;12.97;;;6.43;;
6133;SDS011;3098;42.678;23.364;2023-02-28T00:22:38;19.92;;;6.25;;
6133;SDS011;3098;42.678;23.364;2023-02-28T00:25:07;22.60;;;5.83;;
6133;SDS011;3098;42.678;23.364;2023-02-28T00:27:37;13.60;;;5.20;;
6133;SDS011;3098;42.678;23.364;2023-02-28T00:30:07;13.07;;;5.00;;
6133;SDS011;3098;42.678;23.364;2023-02-28T00:32:36;9.53;;;4.80;;
6133;SDS011;3098;42.678;23.364;2023-02-28T00:35:04;14.23;;;5.37;;
6133;SDS011;3098;42.678;23.364;2023-02-28T00:37:33;15.40;;;4.73;;
6133;SDS011;3098;42.678;23.364;2023-02-28T00:40:01;18.67;;;6.93;;
6133;SDS011;3098;42.678;23.364;2023-02-28T00:42:29;15.77;;;6.13;;
6133;SDS011;3098;42.678;23.364;2023-02-28T00:44:59;16.87;;;5.83;;
6133;SDS011;3098;42.678;23.364;2023-02-28T00:47:26;14.93;;;6.27;;
6133;SDS011;3098;42.678;23.364;2023-02-28T00:49:54;21.97;;;7.53;;
6133;SDS011;3098;42.678;23.364;2023-02-28T00:52:21;13.97;;;6.53;;
6133;SDS011;3098;42.678;23.364;2023-02-28T00:54:48;13.13;;;5.83;;
6133;SDS011;3098;42.678;23.364;2023-02-28T00:57:15;19.03;;;8.10;;
6133;SDS011;3098;42.678;23.364;2023-02-28T00:59:42;15.20;;;7.17;;
6133;SDS011;3098;42.678;23.364;2023-02-28T01:02:11;22.90;;;7.37;;
6133;SDS011;3098;42.678;23.364;2023-02-28T01:04:38;19.80;;;7.63;;
6133;SDS011;3098;42.678;23.364;2023-02-28T01:07:05;14.43;;;7.20;;
6133;SDS011;3098;42.678;23.364;2023-02-28T01:09:33;20.10;;;5.40;;
6133;SDS011;3098;42.678;23.364;2023-02-28T01:12:00;12.93;;;5.50;;
6133;SDS011;3098;42.678;23.364;2023-02-28T01:14:29;16.90;;;7.20;;
6133;SDS011;3098;42.678;23.364;2023-02-28T01:16:57;17.17;;;6.93;;
6133;SDS011;3098;42.678;23.364;2023-02-28T01:19:26;16.97;;;6.90;;
6133;SDS011;3098;42.678;23.364;2023-02-28T01:21:53;14.47;;;5.70;;
6133;SDS011;3098;42.678;23.364;2023-02-28T01:24:22;13.67;;;6.07;;
6133;SDS011;3098;42.678;23.364;2023-02-28T01:26:49;21.37;;;6.53;;
6133;SDS011;3098;42.678;23.364;2023-02-28T01:29:17;11.67;;;6.73;;
6133;SDS011;3098;42.678;23.364;2023-02-28T01:31:44;19.30;;;7.23;;
6133;SDS011;3098;42.678;23.364;2023-02-28T01:34:12;21.10;;;6.43;;
6133;SDS011;3098;42.678;23.364;2023-02-28T01:36:41;14.67;;;6.47;;
6133;SDS011;3098;42.678;23.364;2023-02-28T01:39:08;16.63;;;6.80;;
6133;SDS011;3098;42.678;23.364;2023-02-28T01:41:35;14.47;;;6.03;;
6133;SDS011;3098;42.678;23.364;2023-02-28T01:44:04;20.23;;;6.77;;
6133;SDS011;3098;42.678;23.364;2023-02-28T01:46:33;18.17;;;6.07;;
6133;SDS011;3098;42.678;23.364;2023-02-28T01:49:04;14.20;;;6.47;;
6133;SDS011;3098;42.678;23.364;2023-02-28T01:51:37;24.50;;;8.20;;
6133;SDS011;3098;42.678;23.364;2023-02-28T01:54:13;14.83;;;6.83;;
6133;SDS011;3098;42.678;23.364;2023-02-28T01:56:44;11.77;;;6.27;;
6133;SDS011;3098;42.678;23.364;2023-02-28T01:59:18;14.97;;;7.00;;
6133;SDS011;3098;42.678;23.364;2023-02-28T02:01:48;16.60;;;6.87;;
6133;SDS011;3098;42.678;23.364;2023-02-28T02:04:16;19.37;;;7.60;;
6133;SDS011;3098;42.678;23.364;2023-02-28T02:06:44;18.60;;;7.47;;
6133;SDS011;3098;42.678;23.364;2023-02-28T02:09:17;20.37;;;7.83;;
6133;SDS011;3098;42.678;23.364;2023-02-28T02:11:44;17.40;;;7.17;;
6133;SDS011;3098;42.678;23.364;2023-02-28T02:14:21;14.53;;;6.53;;
6133;SDS011;3098;42.678;23.364;2023-02-28T02:17:02;13.53;;;6.33;;
6133;SDS011;3098;42.678;23.364;2023-02-28T02:19:50;17.87;;;7.27;;
6133;SDS011;3098;42.678;23.364;2023-02-28T02:25:46;15.13;;;7.07;;
6133;SDS011;3098;42.678;23.364;2023-02-28T02:31:20;24.80;;;8.47;;
6133;SDS011;3098;42.678;23.364;2023-02-28T02:36:54;25.33;;;7.27;;
6133;SDS011;3098;42.678;23.364;2023-02-28T02:39:30;29.97;;;7.83;;
6133;SDS011;3098;42.678;23.364;2023-02-28T02:42:04;17.50;;;7.33;;
6133;SDS011;3098;42.678;23.364;2023-02-28T02:44:42;22.90;;;7.37;;
6133;SDS011;3098;42.678;23.364;2023-02-28T02:47:13;20.40;;;7.23;;
6133;SDS011;3098;42.678;23.364;2023-02-28T02:49:45;20.97;;;8.50;;
6133;SDS011;3098;42.678;23.364;2023-02-28T02:52:16;18.47;;;7.60;;
6133;SDS011;3098;42.678;23.364;2023-02-28T02:54:47;22.47;;;8.70;;
6133;SDS011;3098;42.678;23.364;2023-02-28T02:57:20;23.37;;;7.80;;
6133;SDS011;3098;42.678;23.364;2023-02-28T02:59:52;18.67;;;7.80;;
6133;SDS011;3098;42.678;23.364;2023-02-28T03:02:21;28.47;;;9.53;;
6133;SDS011;3098;42.678;23.364;2023-02-28T03:04:53;26.30;;;7.93;;
6133;SDS011;3098;42.678;23.364;2023-02-28T03:07:26;20.87;;;8.30;;
6133;SDS011;3098;42.678;23.364;2023-02-28T03:09:54;32.53;;;8.43;;
6133;SDS011;3098;42.678;23.364;2023-02-28T03:12:25;28.63;;;9.53;;
6133;SDS011;3098;42.678;23.364;2023-02-28T03:15:08;25.03;;;8.33;;
6133;SDS011;3098;42.678;23.364;2023-02-28T03:17:48;23.27;;;9.00;;
6133;SDS011;3098;42.678;23.364;2023-02-28T03:20:30;36.87;;;9.57;;
6133;SDS011;3098;42.678;23.364;2023-02-28T03:23:13;35.67;;;9.67;;
6133;SDS011;3098;42.678;23.364;2023-02-28T03:25:47;23.47;;;8.37;;
6133;SDS011;3098;42.678;23.364;2023-02-28T03:28:26;31.77;;;8.53;;
6133;SDS011;3098;42.678;23.364;2023-02-28T03:30:59;32.50;;;9.60;;
6133;SDS011;3098;42.678;23.364;2023-02-28T03:33:35;26.30;;;10.57;;
6133;SDS011;3098;42.678;23.364;2023-02-28T03:36:10;23.73;;;9.83;;
6133;SDS011;3098;42.678;23.364;2023-02-28T03:38:41;31.27;;;10.57;;
6133;SDS011;3098;42.678;23.364;2023-02-28T03:41:13;23.50;;;9.20;;
6133;SDS011;3098;42.678;23.364;2023-02-28T03:43:45;27.83;;;9.80;;
6133;SDS011;3098;42.678;23.364;2023-02-28T03:46:18;38.10;;;11.07;;
6133;SDS011;3098;42.678;23.364;2023-02-28T03:48:49;38.10;;;10.60;;
6133;SDS011;3098;42.678;23.364;2023-02-28T03:51:21;35.70;;;12.20;;
6133;SDS011;3098;42.678;23.364;2023-02-28T03:53:52;40.43;;;10.87;;
6133;SDS011;3098;42.678;23.364;2023-02-28T03:56:22;35.10;;;10.20;;
6133;SDS011;3098;42.678;23.364;2023-02-28T03:58:54;35.77;;;11.13;;
6133;SDS011;3098;42.678;23.364;2023-02-28T04:01:25;30.13;;;10.37;;
6133;SDS011;3098;42.678;23.364;2023-02-28T04:03:58;42.93;;;9.50;;
6133;SDS011;3098;42.678;23.364;2023-02-28T04:06:27;17.63;;;7.43;;
6133;SDS011;3098;42.678;23.364;2023-02-28T04:08:59;32.70;;;8.97;;
6133;SDS011;3098;42.678;23.364;2023-02-28T04:11:29;20.93;;;7.57;;
6133;SDS011;3098;42.678;23.364;2023-02-28T04:14:02;24.27;;;8.67;;
6133;SDS011;3098;42.678;23.364;2023-02-28T04:16:29;22.30;;;7.50;;
6133;SDS011;3098;42.678;23.364;2023-02-28T04:18:57;18.57;;;7.57;;
6133;SDS011;3098;42.678;23.364;2023-02-28T04:21:28;26.60;;;9.60;;
6133;SDS011;3098;42.678;23.364;2023-02-28T04:23:57;34.80;;;8.63;;
6133;SDS011;3098;42.678;23.364;2023-02-28T04:26:25;25.73;;;8.60;;
6133;SDS011;3098;42.678;23.364;2023-02-28T04:28:56;22.40;;;8.27;;
6133;SDS011;3098;42.678;23.364;2023-02-28T04:31:23;23.57;;;8.80;;
6133;SDS011;3098;42.678;23.364;2023-02-28T04:33:50;33.50;;;8.43;;
6133;SDS011;3098;42.678;23.364;2023-02-28T04:36:18;25.67;;;8.17;;
6133;SDS011;3098;42.678;23.364;2023-02-28T04:38:49;35.27;;;9.07;;
6133;SDS011;3098;42.678;23.364;2023-02-28T04:41:18;26.07;;;8.40;;
6133;SDS011;3098;42.678;23.364;2023-02-28T04:43:46;23.40;;;8.30;;
6133;SDS011;3098;42.678;23.364;2023-02-28T04:46:13;25.57;;;9.47;;
6133;SDS011;3098;42.678;23.364;2023-02-28T04:48:40;33.03;;;9.67;;
6133;SDS011;3098;42.678;23.364;2023-02-28T04:51:09;20.60;;;8.40;;
6133;SDS011;3098;42.678;23.364;2023-02-28T04:53:38;27.30;;;8.57;;
6133;SDS011;3098;42.678;23.364;2023-02-28T04:56:13;24.53;;;8.67;;
6133;SDS011;3098;42.678;23.364;2023-02-28T04:58:43;19.27;;;8.37;;
6133;SDS011;3098;42.678;23.364;2023-02-28T05:01:17;29.40;;;10.27;;
6133;SDS011;3098;42.678;23.364;2023-02-28T05:03:47;33.77;;;8.40;;
6133;SDS011;3098;42.678;23.364;2023-02-28T05:06:15;26.93;;;8.33;;
6133;SDS011;3098;42.678;23.364;2023-02-28T05:08:43;24.90;;;8.67;;
6133;SDS011;3098;42.678;23.364;2023-02-28T05:11:16;27.90;;;8.73;;
6133;SDS011;3098;42.678;23.364;2023-02-28T05:13:46;30.63;;;8.30;;
6133;SDS011;3098;42.678;23.364;2023-02-28T05:16:15;23.30;;;8.97;;
6133;SDS011;3098;42.678;23.364;2023-02-28T05:18:43;30.37;;;7.97;;
6133;SDS011;3098;42.678;23.364;2023-02-28T05:24:01;23.87;;;8.53;;
6133;SDS011;3098;42.678;23.364;2023-02-28T05:26:33;17.33;;;8.80;;
6133;SDS011;3098;42.678;23.364;2023-02-28T05:29:01;20.77;;;8.87;;
6133;SDS011;3098;42.678;23.364;2023-02-28T05:31:29;26.23;;;8.70;;
6133;SDS011;3098;42.678;23.364;2023-02-28T05:33:56;27.90;;;8.17;;
6133;SDS011;3098;42.678;23.364;2023-02-28T05:36:24;18.00;;;7.70;;
6133;SDS011;3098;42.678;23.364;2023-02-28T05:38:52;30.47;;;9.83;;
6133;SDS011;3098;42.678;23.364;2023-02-28T05:41:19;23.20;;;9.03;;
6133;SDS011;3098;42.678;23.364;2023-02-28T05:43:49;32.80;;;11.10;;
6133;SDS011;3098;42.678;23.364;2023-02-28T05:46:16;44.37;;;12.30;;
6133;SDS011;3098;42.678;23.364;2023-02-28T05:48:46;34.93;;;11.33;;
6133;SDS011;3098;42.678;23.364;2023-02-28T05:51:15;38.77;;;13.73;;
6133;SDS011;3098;42.678;23.364;2023-02-28T05:53:43;49.77;;;12.63;;
6133;SDS011;3098;42.678;23.364;2023-02-28T05:56:12;34.70;;;11.93;;
6133;SDS011;3098;42.678;23.364;2023-02-28T05:58:39;24.20;;;9.63;;
6133;SDS011;3098;42.678;23.364;2023-02-28T06:01:33;26.27;;;9.73;;
6133;SDS011;3098;42.678;23.364;2023-02-28T06:04:02;33.27;;;12.13;;
6133;SDS011;3098;42.678;23.364;2023-02-28T06:06:33;42.10;;;13.23;;
6133;SDS011;3098;42.678;23.364;2023-02-28T06:09:01;38.87;;;12.17;;
6133;SDS011;3098;42.678;23.364;2023-02-28T06:11:29;40.65;;;13.00;;
6133;SDS011;3098;42.678;23.364;2023-02-28T06:13:58;30.60;;;13.07;;
6133;SDS011;3098;42.678;23.364;2023-02-28T06:16:29;51.38;;;12.63;;
6133;SDS011;3098;42.678;23.364;2023-02-28T06:18:59;34.27;;;13.57;;
6133;SDS011;3098;42.678;23.364;2023-02-28T06:21:31;43.17;;;13.50;;
6133;SDS011;3098;42.678;23.364;2023-02-28T06:23:58;36.97;;;12.03;;
6133;SDS011;3098;42.678;23.364;2023-02-28T06:26:25;35.23;;;12.17;;
6133;SDS011;3098;42.678;23.364;2023-02-28T06:28:56;36.03;;;11.80;;
6133;SDS011;3098;42.678;23.364;2023-02-28T06:31:25;42.10;;;12.63;;
6133;SDS011;3098;42.678;23.364;2023-02-28T06:33:54;49.47;;;13.63;;
6133;SDS011;3098;42.678;23.364;2023-02-28T06:36:22;50.37;;;15.57;;
6133;SDS011;3098;42.678;23.364;2023-02-28T06:38:49;42.53;;;14.60;;
6133;SDS011;3098;42.678;23.364;2023-02-28T06:41:20;42.17;;;14.17;;
6133;SDS011;3098;42.678;23.364;2023-02-28T06:43:49;31.80;;;12.17;;
6133;SDS011;3098;42.678;23.364;2023-02-28T06:46:16;41.87;;;12.50;;
6133;SDS011;3098;42.678;23.364;2023-02-28T06:48:47;44.83;;;14.90;;
6133;SDS011;3098;42.678;23.364;2023-02-28T06:51:15;46.22;;;15.15;;
6133;SDS011;3098;42.678;23.364;2023-02-28T06:53:45;38.67;;;13.77;;
6133;SDS011;3098;42.678;23.364;2023-02-28T06:56:14;34.72;;;13.35;;
6133;SDS011;3098;42.678;23.364;2023-02-28T06:58:45;47.77;;;13.67;;
6133;SDS011;3098;42.678;23.364;2023-02-28T07:01:15;35.08;;;11.35;;
6133;SDS011;3098;42.678;23.364;2023-02-28T07:03:43;30.90;;;10.90;;
6133;SDS011;3098;42.678;23.364;2023-02-28T07:06:13;27.07;;;10.40;;
6133;SDS011;3098;42.678;23.364;2023-02-28T07:08:43;30.23;;;10.53;;
6133;SDS011;3098;42.678;23.364;2023-02-28T07:11:10;30.37;;;12.17;;
6133;SDS011;3098;42.678;23.364;2023-02-28T07:13:37;32.53;;;11.73;;
6133;SDS011;3098;42.678;23.364;2023-02-28T07:16:05;31.10;;;13.10;;
6133;SDS011;3098;42.678;23.364;2023-02-28T07:18:36;33.00;;;11.90;;
6133;SDS011;3098;42.678;23.364;2023-02-28T07:21:05;37.73;;;13.07;;
6133;SDS011;3098;42.678;23.364;2023-02-28T07:23:37;30.97;;;11.53;;
6133;SDS011;3098;42.678;23.364;2023-02-28T07:26:07;29.73;;;11.97;;
6133;SDS011;3098;42.678;23.364;2023-02-28T07:28:40;24.00;;;10.03;;
6133;SDS011;3098;42.678;23.364;2023-02-28T07:31:09;24.35;;;9.55;;
6133;SDS011;3098;42.678;23.364;2023-02-28T07:33:39;27.17;;;10.30;;
6133;SDS011;3098;42.678;23.364;2023-02-28T07:36:08;29.60;;;10.37;;
6133;SDS011;3098;42.678;23.364;2023-02-28T07:38:40;29.90;;;9.88;;
6133;SDS011;3098;42.678;23.364;2023-02-28T07:41:08;38.22;;;12.57;;
6133;SDS011;3098;42.678;23.364;2023-02-28T07:43:38;30.97;;;10.83;;
6133;SDS011;3098;42.678;23.364;2023-02-28T07:46:08;31.40;;;11.13;;
6133;SDS011;3098;42.678;23.364;2023-02-28T07:48:37;32.88;;;10.63;;
6133;SDS011;3098;42.678;23.364;2023-02-28T07:51:05;34.95;;;12.02;;
6133;SDS011;3098;42.678;23.364;2023-02-28T07:53:37;29.83;;;10.02;;
6133;SDS011;3098;42.678;23.364;2023-02-28T07:56:12;30.13;;;11.95;;
6133;SDS011;3098;42.678;23.364;2023-02-28T07:58:44;40.40;;;11.88;;
6133;SDS011;3098;42.678;23.364;2023-02-28T08:01:12;31.40;;;12.35;;
6133;SDS011;3098;42.678;23.364;2023-02-28T08:03:44;29.90;;;12.50;;
6133;SDS011;3098;42.678;23.364;2023-02-28T08:06:15;40.35;;;15.32;;
6133;SDS011;3098;42.678;23.364;2023-02-28T08:08:46;36.35;;;14.82;;
6133;SDS011;3098;42.678;23.364;2023-02-28T08:11:17;34.50;;;15.40;;
6133;SDS011;3098;42.678;23.364;2023-02-28T08:13:45;38.25;;;15.05;;
6133;SDS011;3098;42.678;23.364;2023-02-28T08:16:13;47.80;;;15.43;;
6133;SDS011;3098;42.678;23.364;2023-02-28T08:18:47;35.80;;;13.95;;
6133;SDS011;3098;42.678;23.364;2023-02-28T08:21:16;35.50;;;15.35;;
6133;SDS011;3098;42.678;23.364;2023-02-28T08:23:43;41.75;;;14.68;;
6133;SDS011;3098;42.678;23.364;2023-02-28T08:26:13;41.75;;;14.70;;
6133;SDS011;3098;42.678;23.364;2023-02-28T08:28:43;40.47;;;15.23;;
6133;SDS011;3098;42.678;23.364;2023-02-28T08:31:11;33.58;;;13.90;;
6133;SDS011;3098;42.678;23.364;2023-02-28T08:33:40;36.70;;;12.63;;
6133;SDS011;3098;42.678;23.364;2023-02-28T08:36:08;35.35;;;13.00;;
6133;SDS011;3098;42.678;23.364;2023-02-28T08:38:36;35.08;;;13.38;;
6133;SDS011;3098;42.678;23.364;2023-02-28T08:41:05;39.63;;;13.90;;
6133;SDS011;3098;42.678;23.364;2023-02-28T08:43:36;31.88;;;11.98;;
6133;SDS011;3098;42.678;23.364;2023-02-28T08:46:06;17.00;;;7.75;;
6133;SDS011;3098;42.678;23.364;2023-02-28T08:48:34;25.48;;;7.82;;
6133;SDS011;3098;42.678;23.364;2023-02-28T08:51:04;21.17;;;7.70;;
6133;SDS011;3098;42.678;23.364;2023-02-28T08:53:34;24.45;;;8.07;;
6133;SDS011;3098;42.678;23.364;2023-02-28T08:56:03;20.90;;;7.60;;
6133;SDS011;3098;42.678;23.364;2023-02-28T08:58:32;25.52;;;8.43;;
6133;SDS011;3098;42.678;23.364;2023-02-28T09:01:09;22.08;;;8.50;;
6133;SDS011;3098;42.678;23.364;2023-02-28T09:03:37;21.90;;;7.38;;
6133;SDS011;3098;42.678;23.364;2023-02-28T09:06:11;20.60;;;7.78;;
6133;SDS011;3098;42.678;23.364;2023-02-28T09:08:39;23.20;;;8.13;;
6133;SDS011;3098;42.678;23.364;2023-02-28T09:11:06;17.10;;;7.55;;
6133;SDS011;3098;42.678;23.364;2023-02-28T09:13:34;25.23;;;8.55;;
6133;SDS011;3098;42.678;23.364;2023-02-28T09:16:06;20.20;;;7.07;;
6133;SDS011;3098;42.678;23.364;2023-02-28T09:18:37;17.63;;;6.85;;
6133;SDS011;3098;42.678;23.364;2023-02-28T09:21:05;17.02;;;7.28;;
6133;SDS011;3098;42.678;23.364;2023-02-28T09:23:34;27.88;;;8.18;;
6133;SDS011;3098;42.678;23.364;2023-02-28T09:26:04;20.70;;;7.55;;
6133;SDS011;3098;42.678;23.364;2023-02-28T09:28:33;14.77;;;6.65;;
6133;SDS011;3098;42.678;23.364;2023-02-28T09:31:01;21.92;;;6.25;;
6133;SDS011;3098;42.678;23.364;2023-02-28T09:33:31;19.77;;;6.82;;
6133;SDS011;3098;42.678;23.364;2023-02-28T09:35:59;15.80;;;6.68;;
6133;SDS011;3098;42.678;23.364;2023-02-28T09:38:28;12.20;;;5.28;;
6133;SDS011;3098;42.678;23.364;2023-02-28T09:40:57;10.77;;;6.10;;
6133;SDS011;3098;42.678;23.364;2023-02-28T09:43:28;22.52;;;6.40;;
6133;SDS011;3098;42.678;23.364;2023-02-28T09:46:02;21.38;;;6.57;;
6133;SDS011;3098;42.678;23.364;2023-02-28T09:48:41;10.43;;;5.32;;
6133;SDS011;3098;42.678;23.364;2023-02-28T09:51:15;13.10;;;5.78;;
6133;SDS011;3098;42.678;23.364;2023-02-28T09:53:57;12.18;;;5.20;;
6133;SDS011;3098;42.678;23.364;2023-02-28T09:56:26;20.65;;;6.05;;
6133;SDS011;3098;42.678;23.364;2023-02-28T09:58:59;14.18;;;5.45;;
6133;SDS011;3098;42.678;23.364;2023-02-28T10:01:30;14.63;;;5.18;;
6133;SDS011;3098;42.678;23.364;2023-02-28T10:04:05;16.33;;;5.32;;
6133;SDS011;3098;42.678;23.364;2023-02-28T10:06:41;10.25;;;4.40;;
6133;SDS011;3098;42.678;23.364;2023-02-28T10:09:14;12.13;;;5.57;;
6133;SDS011;3098;42.678;23.364;2023-02-28T10:11:46;14.07;;;5.60;;
6133;SDS011;3098;42.678;23.364;2023-02-28T10:14:14;9.93;;;4.95;;
6133;SDS011;3098;42.678;23.364;2023-02-28T10:16:46;11.23;;;5.18;;
6133;SDS011;3098;42.678;23.364;2023-02-28T10:19:21;9.60;;;4.68;;
6133;SDS011;3098;42.678;23.364;2023-02-28T10:21:54;17.02;;;4.78;;
6133;SDS011;3098;42.678;23.364;2023-02-28T10:24:26;10.80;;;5.25;;
6133;SDS011;3098;42.678;23.364;2023-02-28T10:26:59;8.20;;;4.30;;
6133;SDS011;3098;42.678;23.364;2023-02-28T10:29:28;16.40;;;4.93;;
6133;SDS011;3098;42.678;23.364;2023-02-28T10:32:00;8.10;;;4.18;;
6133;SDS011;3098;42.678;23.364;2023-02-28T10:34:31;10.50;;;4.18;;
6133;SDS011;3098;42.678;23.364;2023-02-28T10:36:59;19.08;;;4.90;;
6133;SDS011;3098;42.678;23.364;2023-02-28T10:39:35;18.38;;;4.95;;
6133;SDS011;3098;42.678;23.364;2023-02-28T10:42:05;11.27;;;4.85;;
6133;SDS011;3098;42.678;23.364;2023-02-28T10:44:45;10.90;;;4.90;;
6133;SDS011;3098;42.678;23.364;2023-02-28T10:47:14;21.88;;;5.65;;
6133;SDS011;3098;42.678;23.364;2023-02-28T10:49:48;10.90;;;4.70;;
6133;SDS011;3098;42.678;23.364;2023-02-28T10:52:32;7.50;;;4.80;;
6133;SDS011;3098;42.678;23.364;2023-02-28T10:55:14;10.32;;;4.35;;
6133;SDS011;3098;42.678;23.364;2023-02-28T10:57:47;15.05;;;5.70;;
6133;SDS011;3098;42.678;23.364;2023-02-28T11:00:15;10.82;;;4.50;;
6133;SDS011;3098;42.678;23.364;2023-02-28T11:02:46;11.50;;;5.15;;
6133;SDS011;3098;42.678;23.364;2023-02-28T11:05:27;9.63;;;4.25;;
6133;SDS011;3098;42.678;23.364;2023-02-28T11:07:56;13.85;;;5.13;;
6133;SDS011;3098;42.678;23.364;2023-02-28T11:10:30;17.80;;;4.35;;
6133;SDS011;3098;42.678;23.364;2023-02-28T11:13:00;10.50;;;4.75;;
6133;SDS011;3098;42.678;23.364;2023-02-28T11:15:29;18.50;;;5.63;;
6133;SDS011;3098;42.678;23.364;2023-02-28T11:17:59;16.60;;;5.22;;
6133;SDS011;3098;42.678;23.364;2023-02-28T11:20:32;10.30;;;4.43;;
6133;SDS011;3098;42.678;23.364;2023-02-28T11:23:00;9.65;;;5.30;;
6133;SDS011;3098;42.678;23.364;2023-02-28T11:25:31;11.75;;;5.60;;
6133;SDS011;3098;42.678;23.364;2023-02-28T11:28:00;11.73;;;5.00;;
6133;SDS011;3098;42.678;23.364;2023-02-28T11:30:32;8.05;;;4.03;;
6133;SDS011;3098;42.678;23.364;2023-02-28T11:33:18;14.20;;;5.00;;
6133;SDS011;3098;42.678;23.364;2023-02-28T11:35:50;10.43;;;4.13;;
6133;SDS011;3098;42.678;23.364;2023-02-28T11:38:18;18.15;;;6.20;;
6133;SDS011;3098;42.678;23.364;2023-02-28T11:40:48;11.27;;;4.90;;
6133;SDS011;3098;42.678;23.364;2023-02-28T11:43:30;9.82;;;4.68;;
6133;SDS011;3098;42.678;23.364;2023-02-28T11:46:12;16.58;;;5.57;;
6133;SDS011;3098;42.678;23.364;2023-02-28T11:48:51;15.38;;;5.18;;
6133;SDS011;3098;42.678;23.364;2023-02-28T11:51:31;17.75;;;4.07;;
6133;SDS011;3098;42.678;23.364;2023-02-28T11:54:18;10.38;;;3.75;;
6133;SDS011;3098;42.678;23.364;2023-02-28T11:56:58;15.27;;;6.05;;
6133;SDS011;3098;42.678;23.364;2023-02-28T11:59:40;20.55;;;5.63;;
6133;SDS011;3098;42.678;23.364;2023-02-28T12:02:23;17.58;;;5.32;;
6133;SDS011;3098;42.678;23.364;2023-02-28T12:05:08;13.77;;;4.95;;
6133;SDS011;3098;42.678;23.364;2023-02-28T12:07:50;12.65;;;4.30;;
6133;SDS011;3098;42.678;23.364;2023-02-28T12:10:35;14.10;;;5.68;;
6133;SDS011;3098;42.678;23.364;2023-02-28T12:13:15;14.85;;;5.53;;
6133;SDS011;3098;42.678;23.364;2023-02-28T12:15:51;12.52;;;5.13;;
6133;SDS011;3098;42.678;23.364;2023-02-28T12:21:28;14.93;;;5.10;;
6133;SDS011;3098;42.678;23.364;2023-02-28T12:24:08;10.48;;;5.13;;
6133;SDS011;3098;42.678;23.364;2023-02-28T12:27:05;19.85;;;4.70;;
6133;SDS011;3098;42.678;23.364;2023-02-28T12:29:39;12.88;;;4.80;;
6133;SDS011;3098;42.678;23.364;2023-02-28T12:32:16;12.13;;;4.78;;
6133;SDS011;3098;42.678;23.364;2023-02-28T12:34:52;11.88;;;4.47;;
6133;SDS011;3098;42.678;23.364;2023-02-28T12:37:25;17.70;;;6.05;;
6133;SDS011;3098;42.678;23.364;2023-02-28T12:40:02;14.07;;;4.63;;
6133;SDS011;3098;42.678;23.364;2023-02-28T12:42:34;18.48;;;5.60;;
6133;SDS011;3098;42.678;23.364;2023-02-28T12:45:10;14.45;;;4.57;;
6133;SDS011;3098;42.678;23.364;2023-02-28T12:47:45;7.43;;;4.10;;
6133;SDS011;3098;42.678;23.364;2023-02-28T12:50:16;15.68;;;5.07;;
6133;SDS011;3098;42.678;23.364;2023-02-28T12:52:47;15.98;;;4.97;;
6133;SDS011;3098;42.678;23.364;2023-02-28T12:55:23;14.63;;;4.85;;
6133;SDS011;3098;42.678;23.364;2023-02-28T12:58:01;12.95;;;5.32;;
6133;SDS011;3098;42.678;23.364;2023-02-28T13:00:42;13.80;;;4.22;;
6133;SDS011;3098;42.678;23.364;2023-02-28T13:03:35;11.13;;;3.97;;
6133;SDS011;3098;42.678;23.364;2023-02-28T13:06:22;12.10;;;4.15;;
6133;SDS011;3098;42.678;23.364;2023-02-28T13:09:12;16.08;;;5.10;;
6133;SDS011;3098;42.678;23.364;2023-02-28T13:11:43;10.93;;;4.45;;
6133;SDS011;3098;42.678;23.364;2023-02-28T13:14:20;11.88;;;4.43;;
6133;SDS011;3098;42.678;23.364;2023-02-28T13:16:54;7.68;;;3.55;;
6133;SDS011;3098;42.678;23.364;2023-02-28T13:19:24;11.43;;;4.80;;
6133;SDS011;3098;42.678;23.364;2023-02-28T13:21:53;20.50;;;5.07;;
6133;SDS011;3098;42.678;23.364;2023-02-28T13:30:02;11.23;;;4.65;;
6133;SDS011;3098;42.678;23.364;2023-02-28T13:33:20;19.85;;;4.72;;
6133;SDS011;3098;42.678;23.364;2023-02-28T13:35:58;12.38;;;5.32;;
6133;SDS011;3098;42.678;23.364;2023-02-28T13:38:34;8.93;;;4.25;;
6133;SDS011;3098;42.678;23.364;2023-02-28T13:44:18;10.43;;;4.18;;
6133;SDS011;3098;42.678;23.364;2023-02-28T13:49:56;14.20;;;5.40;;
6133;SDS011;3098;42.678;23.364;2023-02-28T13:52:50;12.38;;;4.38;;
6133;SDS011;3098;42.678;23.364;2023-02-28T13:55:24;11.85;;;4.47;;
6133;SDS011;3098;42.678;23.364;2023-02-28T13:58:04;13.93;;;5.18;;
6133;SDS011;3098;42.678;23.364;2023-02-28T14:00:42;14.15;;;4.90;;
6133;SDS011;3098;42.678;23.364;2023-02-28T14:03:32;10.57;;;3.47;;
6133;SDS011;3098;42.678;23.364;2023-02-28T14:06:26;20.58;;;5.20;;
6133;SDS011;3098;42.678;23.364;2023-02-28T14:08:58;9.88;;;4.30;;
6133;SDS011;3098;42.678;23.364;2023-02-28T14:11:30;7.70;;;3.67;;
6133;SDS011;3098;42.678;23.364;2023-02-28T14:13:59;10.80;;;5.20;;
6133;SDS011;3098;42.678;23.364;2023-02-28T14:16:28;11.77;;;4.45;;
6133;SDS011;3098;42.678;23.364;2023-02-28T14:19:12;22.65;;;5.68;;
6133;SDS011;3098;42.678;23.364;2023-02-28T14:21:50;13.55;;;4.95;;
6133;SDS011;3098;42.678;23.364;2023-02-28T14:24:42;12.77;;;3.95;;
6133;SDS011;3098;42.678;23.364;2023-02-28T14:27:29;8.82;;;3.78;;
6133;SDS011;3098;42.678;23.364;2023-02-28T14:33:14;13.77;;;5.53;;
6133;SDS011;3098;42.678;23.364;2023-02-28T14:38:46;12.52;;;5.05;;
6133;SDS011;3098;42.678;23.364;2023-02-28T14:41:22;13.15;;;4.30;;
6133;SDS011;3098;42.678;23.364;2023-02-28T14:43:52;13.07;;;4.95;;
6133;SDS011;3098;42.678;23.364;2023-02-28T14:46:23;22.02;;;4.43;;
6133;SDS011;3098;42.678;23.364;2023-02-28T14:48:55;13.40;;;4.53;;
6133;SDS011;3098;42.678;23.364;2023-02-28T14:51:23;14.48;;;3.45;;
6133;SDS011;3098;42.678;23.364;2023-02-28T14:53:59;11.27;;;4.03;;
6133;SDS011;3098;42.678;23.364;2023-02-28T14:56:30;20.73;;;4.35;;
6133;SDS011;3098;42.678;23.364;2023-02-28T14:59:02;17.15;;;4.70;;
6133;SDS011;3098;42.678;23.364;2023-02-28T15:01:31;10.23;;;4.78;;
6133;SDS011;3098;42.678;23.364;2023-02-28T15:04:00;11.90;;;3.83;;
6133;SDS011;3098;42.678;23.364;2023-02-28T15:06:30;18.02;;;4.78;;
6133;SDS011;3098;42.678;23.364;2023-02-28T15:09:11;6.57;;;3.95;;
6133;SDS011;3098;42.678;23.364;2023-02-28T15:11:44;8.38;;;3.42;;
6133;SDS011;3098;42.678;23.364;2023-02-28T15:14:15;6.35;;;3.10;;
6133;SDS011;3098;42.678;23.364;2023-02-28T15:16:50;11.50;;;4.07;;
6133;SDS011;3098;42.678;23.364;2023-02-28T15:19:22;12.82;;;4.30;;
6133;SDS011;3098;42.678;23.364;2023-02-28T15:21:53;10.52;;;3.45;;
6133;SDS011;3098;42.678;23.364;2023-02-28T15:24:29;15.13;;;4.10;;
6133;SDS011;3098;42.678;23.364;2023-02-28T15:27:03;14.70;;;3.70;;
6133;SDS011;3098;42.678;23.364;2023-02-28T15:29:34;7.05;;;3.47;;
6133;SDS011;3098;42.678;23.364;2023-02-28T15:32:20;19.13;;;3.33;;
6133;SDS011;3098;42.678;23.364;2023-02-28T15:34:52;12.65;;;4.30;;
6133;SDS011;3098;42.678;23.364;2023-02-28T15:37:30;10.15;;;3.83;;
6133;SDS011;3098;42.678;23.364;2023-02-28T15:40:11;12.15;;;3.35;;
6133;SDS011;3098;42.678;23.364;2023-02-28T15:42:42;7.18;;;3.00;;
6133;SDS011;3098;42.678;23.364;2023-02-28T15:45:27;5.13;;;2.53;;
6133;SDS011;3098;42.678;23.364;2023-02-28T15:48:05;11.40;;;4.00;;